sensor_id;sensor_type;location;lat;lon;timestamp;temperature;humidity
68235;DHT22;55052;52.056;5.296;2024-01-30T00:00:20;8.70;96.00
68235;DHT22;55052;52.056;5.296;2024-01-30T00:02:47;8.60;96.00
68235;DHT22;55052;52.056;5.296;2024-01-30T00:05:14;8.60;96.00
68235;DHT22;55052;52.056;5.296;2024-01-30T00:07:41;8.60;96.00
68235;DHT22;55052;52.056;5.296;2024-01-30T00:10:08;8.50;96.00
68235;DHT22;55052;52.056;5.296;2024-01-30T00:12:35;8.50;96.00
68235;DHT22;55052;52.056;5.296;2024-01-30T00:15:02;8.50;96.00
68235;DHT22;55052;52.056;5.296;2024-01-30T00:17:31;8.50;96.00
68235;DHT22;55052;52.056;5.296;2024-01-30T00:19:58;8.40;96.00
68235;DHT22;55052;52.056;5.296;2024-01-30T00:22:25;8.40;96.10
68235;DHT22;55052;52.056;5.296;2024-01-30T00:24:52;8.40;96.10
68235;DHT22;55052;52.056;5.296;2024-01-30T00:27:18;8.40;96.10
68235;DHT22;55052;52.056;5.296;2024-01-30T00:29:45;8.40;96.10
68235;DHT22;55052;52.056;5.296;2024-01-30T00:32:12;8.40;96.10
68235;DHT22;55052;52.056;5.296;2024-01-30T00:34:39;8.30;96.10
68235;DHT22;55052;52.056;5.296;2024-01-30T00:37:06;8.40;96.20
68235;DHT22;55052;52.056;5.296;2024-01-30T00:39:32;8.30;96.20
68235;DHT22;55052;52.056;5.296;2024-01-30T00:41:59;8.30;96.20
68235;DHT22;55052;52.056;5.296;2024-01-30T00:44:26;8.30;96.20
68235;DHT22;55052;52.056;5.296;2024-01-30T00:46:53;8.30;96.30
68235;DHT22;55052;52.056;5.296;2024-01-30T00:49:20;8.30;96.30
68235;DHT22;55052;52.056;5.296;2024-01-30T00:51:47;8.30;96.30
68235;DHT22;55052;52.056;5.296;2024-01-30T00:54:13;8.30;96.30
68235;DHT22;55052;52.056;5.296;2024-01-30T00:56:40;8.30;96.30
68235;DHT22;55052;52.056;5.296;2024-01-30T00:59:07;8.30;96.30
68235;DHT22;55052;52.056;5.296;2024-01-30T01:01:34;8.30;96.30
68235;DHT22;55052;52.056;5.296;2024-01-30T01:04:01;8.20;96.30
68235;DHT22;55052;52.056;5.296;2024-01-30T01:06:28;8.20;96.30
68235;DHT22;55052;52.056;5.296;2024-01-30T01:08:55;8.20;96.40
68235;DHT22;55052;52.056;5.296;2024-01-30T01:11:22;8.20;96.30
68235;DHT22;55052;52.056;5.296;2024-01-30T01:13:49;8.20;96.40
68235;DHT22;55052;52.056;5.296;2024-01-30T01:16:16;8.20;96.40
68235;DHT22;55052;52.056;5.296;2024-01-30T01:18:42;8.20;96.40
68235;DHT22;55052;52.056;5.296;2024-01-30T01:21:09;8.10;96.40
68235;DHT22;55052;52.056;5.296;2024-01-30T01:23:36;8.10;96.80
68235;DHT22;55052;52.056;5.296;2024-01-30T01:26:03;8.10;96.40
68235;DHT22;55052;52.056;5.296;2024-01-30T01:28:30;8.10;96.40
68235;DHT22;55052;52.056;5.296;2024-01-30T01:30:57;8.10;96.40
68235;DHT22;55052;52.056;5.296;2024-01-30T01:33:27;8.00;96.40
68235;DHT22;55052;52.056;5.296;2024-01-30T01:35:54;8.00;96.50
68235;DHT22;55052;52.056;5.296;2024-01-30T01:38:21;8.00;96.50
68235;DHT22;55052;52.056;5.296;2024-01-30T01:40:48;8.00;96.60
68235;DHT22;55052;52.056;5.296;2024-01-30T01:43:15;8.00;96.60
68235;DHT22;55052;52.056;5.296;2024-01-30T01:45:41;8.00;96.70
68235;DHT22;55052;52.056;5.296;2024-01-30T01:48:09;8.00;96.70
68235;DHT22;55052;52.056;5.296;2024-01-30T01:50:36;8.00;97.20
68235;DHT22;55052;52.056;5.296;2024-01-30T01:53:05;8.00;96.80
68235;DHT22;55052;52.056;5.296;2024-01-30T01:55:34;8.00;97.20
68235;DHT22;55052;52.056;5.296;2024-01-30T01:58:02;8.00;97.10
68235;DHT22;55052;52.056;5.296;2024-01-30T02:00:29;8.00;96.90
68235;DHT22;55052;52.056;5.296;2024-01-30T02:02:56;8.00;96.90
68235;DHT22;55052;52.056;5.296;2024-01-30T02:05:24;8.00;97.00
68235;DHT22;55052;52.056;5.296;2024-01-30T02:07:51;8.10;97.00
68235;DHT22;55052;52.056;5.296;2024-01-30T02:10:19;8.10;97.10
68235;DHT22;55052;52.056;5.296;2024-01-30T02:12:46;8.10;97.10
68235;DHT22;55052;52.056;5.296;2024-01-30T02:15:13;8.10;97.10
68235;DHT22;55052;52.056;5.296;2024-01-30T02:17:40;8.10;97.20
68235;DHT22;55052;52.056;5.296;2024-01-30T02:20:08;8.10;97.20
68235;DHT22;55052;52.056;5.296;2024-01-30T02:22:36;8.10;97.20
68235;DHT22;55052;52.056;5.296;2024-01-30T02:25:04;8.10;97.30
68235;DHT22;55052;52.056;5.296;2024-01-30T02:27:31;8.10;97.30
68235;DHT22;55052;52.056;5.296;2024-01-30T02:29:57;8.10;97.40
68235;DHT22;55052;52.056;5.296;2024-01-30T02:32:24;8.10;97.40
68235;DHT22;55052;52.056;5.296;2024-01-30T02:34:51;8.10;97.40
68235;DHT22;55052;52.056;5.296;2024-01-30T02:37:18;8.10;97.40
68235;DHT22;55052;52.056;5.296;2024-01-30T02:39:45;8.20;97.40
68235;DHT22;55052;52.056;5.296;2024-01-30T02:42:11;8.10;97.40
68235;DHT22;55052;52.056;5.296;2024-01-30T02:44:38;8.10;97.50
68235;DHT22;55052;52.056;5.296;2024-01-30T02:47:05;8.10;97.50
68235;DHT22;55052;52.056;5.296;2024-01-30T02:49:32;8.10;97.50
68235;DHT22;55052;52.056;5.296;2024-01-30T02:51:59;8.10;97.50
68235;DHT22;55052;52.056;5.296;2024-01-30T02:54:26;8.20;97.50
68235;DHT22;55052;52.056;5.296;2024-01-30T02:56:52;8.20;97.50
68235;DHT22;55052;52.056;5.296;2024-01-30T02:59:19;8.10;97.50
68235;DHT22;55052;52.056;5.296;2024-01-30T03:01:46;8.20;97.60
68235;DHT22;55052;52.056;5.296;2024-01-30T03:04:14;8.20;97.60
68235;DHT22;55052;52.056;5.296;2024-01-30T03:06:45;8.10;97.60
68235;DHT22;55052;52.056;5.296;2024-01-30T03:09:18;8.20;97.60
68235;DHT22;55052;52.056;5.296;2024-01-30T03:11:45;8.20;97.60
68235;DHT22;55052;52.056;5.296;2024-01-30T03:14:12;8.20;97.70
68235;DHT22;55052;52.056;5.296;2024-01-30T03:16:39;8.20;97.70
68235;DHT22;55052;52.056;5.296;2024-01-30T03:19:06;8.20;97.70
68235;DHT22;55052;52.056;5.296;2024-01-30T03:21:34;8.20;97.90
68235;DHT22;55052;52.056;5.296;2024-01-30T03:24:01;8.20;98.10
68235;DHT22;55052;52.056;5.296;2024-01-30T03:26:28;8.20;97.80
68235;DHT22;55052;52.056;5.296;2024-01-30T03:28:55;8.20;97.90
68235;DHT22;55052;52.056;5.296;2024-01-30T03:31:22;8.20;97.90
68235;DHT22;55052;52.056;5.296;2024-01-30T03:33:49;8.30;97.90
68235;DHT22;55052;52.056;5.296;2024-01-30T03:36:16;8.30;97.90
68235;DHT22;55052;52.056;5.296;2024-01-30T03:38:43;8.30;97.90
68235;DHT22;55052;52.056;5.296;2024-01-30T03:41:09;8.30;97.90
68235;DHT22;55052;52.056;5.296;2024-01-30T03:43:37;8.30;97.90
68235;DHT22;55052;52.056;5.296;2024-01-30T03:46:04;8.30;97.90
68235;DHT22;55052;52.056;5.296;2024-01-30T03:48:30;8.30;98.00
68235;DHT22;55052;52.056;5.296;2024-01-30T03:50:57;8.40;98.20
68235;DHT22;55052;52.056;5.296;2024-01-30T03:53:24;8.40;98.00
68235;DHT22;55052;52.056;5.296;2024-01-30T03:55:51;8.40;98.00
68235;DHT22;55052;52.056;5.296;2024-01-30T03:58:18;8.40;98.00
68235;DHT22;55052;52.056;5.296;2024-01-30T04:00:45;8.40;98.00
68235;DHT22;55052;52.056;5.296;2024-01-30T04:03:12;8.40;98.40
68235;DHT22;55052;52.056;5.296;2024-01-30T04:05:39;8.40;98.10
68235;DHT22;55052;52.056;5.296;2024-01-30T04:08:06;8.50;98.10
68235;DHT22;55052;52.056;5.296;2024-01-30T04:10:33;8.40;98.10
68235;DHT22;55052;52.056;5.296;2024-01-30T04:13:00;8.50;98.20
68235;DHT22;55052;52.056;5.296;2024-01-30T04:15:27;8.50;98.20
68235;DHT22;55052;52.056;5.296;2024-01-30T04:17:58;8.50;98.20
68235;DHT22;55052;52.056;5.296;2024-01-30T04:20:26;8.50;98.20
68235;DHT22;55052;52.056;5.296;2024-01-30T04:22:53;8.50;98.20
68235;DHT22;55052;52.056;5.296;2024-01-30T04:25:19;8.50;98.20
68235;DHT22;55052;52.056;5.296;2024-01-30T04:27:46;8.50;98.20
68235;DHT22;55052;52.056;5.296;2024-01-30T04:30:14;8.50;98.20
68235;DHT22;55052;52.056;5.296;2024-01-30T04:32:41;8.50;98.20
68235;DHT22;55052;52.056;5.296;2024-01-30T04:35:08;8.50;98.20
68235;DHT22;55052;52.056;5.296;2024-01-30T04:37:37;8.60;98.30
68235;DHT22;55052;52.056;5.296;2024-01-30T04:40:05;8.60;98.20
68235;DHT22;55052;52.056;5.296;2024-01-30T04:42:32;8.60;98.30
68235;DHT22;55052;52.056;5.296;2024-01-30T04:44:59;8.60;98.20
68235;DHT22;55052;52.056;5.296;2024-01-30T04:47:25;8.60;98.20
68235;DHT22;55052;52.056;5.296;2024-01-30T04:49:52;8.60;98.30
68235;DHT22;55052;52.056;5.296;2024-01-30T04:52:19;8.60;98.30
68235;DHT22;55052;52.056;5.296;2024-01-30T04:54:47;8.60;98.30
68235;DHT22;55052;52.056;5.296;2024-01-30T04:57:14;8.60;98.30
68235;DHT22;55052;52.056;5.296;2024-01-30T04:59:41;8.60;98.30
68235;DHT22;55052;52.056;5.296;2024-01-30T05:02:08;8.60;98.30
68235;DHT22;55052;52.056;5.296;2024-01-30T05:04:35;8.60;98.30
68235;DHT22;55052;52.056;5.296;2024-01-30T05:07:02;8.60;98.30
68235;DHT22;55052;52.056;5.296;2024-01-30T05:09:29;8.70;98.40
68235;DHT22;55052;52.056;5.296;2024-01-30T05:11:56;8.60;98.30
68235;DHT22;55052;52.056;5.296;2024-01-30T05:14:22;8.70;98.40
68235;DHT22;55052;52.056;5.296;2024-01-30T05:16:49;8.70;98.40
68235;DHT22;55052;52.056;5.296;2024-01-30T05:19:16;8.70;98.40
68235;DHT22;55052;52.056;5.296;2024-01-30T05:21:44;8.70;98.40
68235;DHT22;55052;52.056;5.296;2024-01-30T05:24:11;8.70;98.40
68235;DHT22;55052;52.056;5.296;2024-01-30T05:26:38;8.80;98.50
68235;DHT22;55052;52.056;5.296;2024-01-30T05:29:06;8.80;98.50
68235;DHT22;55052;52.056;5.296;2024-01-30T05:31:33;8.80;98.50
68235;DHT22;55052;52.056;5.296;2024-01-30T05:34:01;8.80;98.50
68235;DHT22;55052;52.056;5.296;2024-01-30T05:36:28;8.80;98.50
68235;DHT22;55052;52.056;5.296;2024-01-30T05:38:56;8.90;98.50
68235;DHT22;55052;52.056;5.296;2024-01-30T05:41:23;8.90;98.60
68235;DHT22;55052;52.056;5.296;2024-01-30T05:43:50;8.90;98.60
68235;DHT22;55052;52.056;5.296;2024-01-30T05:46:17;8.90;98.60
68235;DHT22;55052;52.056;5.296;2024-01-30T05:48:46;8.90;98.60
68235;DHT22;55052;52.056;5.296;2024-01-30T05:51:12;8.90;98.60
68235;DHT22;55052;52.056;5.296;2024-01-30T05:53:40;9.00;98.60
68235;DHT22;55052;52.056;5.296;2024-01-30T05:56:07;9.00;98.60
68235;DHT22;55052;52.056;5.296;2024-01-30T05:58:33;9.00;98.60
68235;DHT22;55052;52.056;5.296;2024-01-30T06:01:00;9.00;98.60
68235;DHT22;55052;52.056;5.296;2024-01-30T06:03:27;9.00;98.60
68235;DHT22;55052;52.056;5.296;2024-01-30T06:05:54;9.00;98.60
68235;DHT22;55052;52.056;5.296;2024-01-30T06:08:21;9.00;98.60
68235;DHT22;55052;52.056;5.296;2024-01-30T06:10:48;9.00;98.60
68235;DHT22;55052;52.056;5.296;2024-01-30T06:13:15;9.00;99.10
68235;DHT22;55052;52.056;5.296;2024-01-30T06:15:42;9.00;98.70
68235;DHT22;55052;52.056;5.296;2024-01-30T06:18:09;9.00;98.70
68235;DHT22;55052;52.056;5.296;2024-01-30T06:20:36;9.00;98.70
68235;DHT22;55052;52.056;5.296;2024-01-30T06:23:03;9.10;98.70
68235;DHT22;55052;52.056;5.296;2024-01-30T06:25:30;9.00;98.70
68235;DHT22;55052;52.056;5.296;2024-01-30T06:27:57;9.10;98.70
68235;DHT22;55052;52.056;5.296;2024-01-30T06:30:24;9.10;98.70
68235;DHT22;55052;52.056;5.296;2024-01-30T06:32:50;9.10;98.70
68235;DHT22;55052;52.056;5.296;2024-01-30T06:35:17;9.10;98.70
68235;DHT22;55052;52.056;5.296;2024-01-30T06:37:44;9.10;98.70
68235;DHT22;55052;52.056;5.296;2024-01-30T06:40:12;9.10;98.70
68235;DHT22;55052;52.056;5.296;2024-01-30T06:42:39;9.10;98.70
68235;DHT22;55052;52.056;5.296;2024-01-30T06:45:06;9.10;98.80
68235;DHT22;55052;52.056;5.296;2024-01-30T06:47:34;9.10;98.70
68235;DHT22;55052;52.056;5.296;2024-01-30T06:50:01;9.10;99.20
68235;DHT22;55052;52.056;5.296;2024-01-30T06:52:29;9.10;98.70
68235;DHT22;55052;52.056;5.296;2024-01-30T06:54:56;9.10;98.80
68235;DHT22;55052;52.056;5.296;2024-01-30T06:57:23;9.20;98.80
68235;DHT22;55052;52.056;5.296;2024-01-30T06:59:49;9.20;98.80
68235;DHT22;55052;52.056;5.296;2024-01-30T07:02:18;9.10;98.80
68235;DHT22;55052;52.056;5.296;2024-01-30T07:04:44;9.20;98.80
68235;DHT22;55052;52.056;5.296;2024-01-30T07:07:13;9.20;98.80
68235;DHT22;55052;52.056;5.296;2024-01-30T07:09:42;9.20;98.80
68235;DHT22;55052;52.056;5.296;2024-01-30T07:12:09;9.20;98.80
68235;DHT22;55052;52.056;5.296;2024-01-30T07:14:35;9.20;98.80
68235;DHT22;55052;52.056;5.296;2024-01-30T07:17:02;9.20;98.80
68235;DHT22;55052;52.056;5.296;2024-01-30T07:19:30;9.20;98.80
68235;DHT22;55052;52.056;5.296;2024-01-30T07:21:57;9.20;98.80
68235;DHT22;55052;52.056;5.296;2024-01-30T07:24:24;9.20;98.80
68235;DHT22;55052;52.056;5.296;2024-01-30T07:26:51;9.20;98.80
68235;DHT22;55052;52.056;5.296;2024-01-30T07:29:18;9.20;98.80
68235;DHT22;55052;52.056;5.296;2024-01-30T07:31:45;9.20;98.80
68235;DHT22;55052;52.056;5.296;2024-01-30T07:34:12;9.30;98.90
68235;DHT22;55052;52.056;5.296;2024-01-30T07:36:39;9.20;98.90
68235;DHT22;55052;52.056;5.296;2024-01-30T07:39:05;9.30;98.90
68235;DHT22;55052;52.056;5.296;2024-01-30T07:41:33;9.20;98.90
68235;DHT22;55052;52.056;5.296;2024-01-30T07:44:00;9.30;98.90
68235;DHT22;55052;52.056;5.296;2024-01-30T07:46:27;9.30;99.00
68235;DHT22;55052;52.056;5.296;2024-01-30T07:48:53;9.30;99.00
68235;DHT22;55052;52.056;5.296;2024-01-30T07:51:23;9.30;99.10
68235;DHT22;55052;52.056;5.296;2024-01-30T07:53:53;9.40;99.10
68235;DHT22;55052;52.056;5.296;2024-01-30T07:56:20;9.40;99.20
68235;DHT22;55052;52.056;5.296;2024-01-30T07:58:47;9.50;99.20
68235;DHT22;55052;52.056;5.296;2024-01-30T08:01:15;9.50;99.30
68235;DHT22;55052;52.056;5.296;2024-01-30T08:03:42;9.50;99.30
68235;DHT22;55052;52.056;5.296;2024-01-30T08:06:09;9.60;99.40
68235;DHT22;55052;52.056;5.296;2024-01-30T08:08:36;9.60;99.40
68235;DHT22;55052;52.056;5.296;2024-01-30T08:11:04;9.70;99.50
68235;DHT22;55052;52.056;5.296;2024-01-30T08:13:31;9.80;99.60
68235;DHT22;55052;52.056;5.296;2024-01-30T08:15:58;9.80;99.60
68235;DHT22;55052;52.056;5.296;2024-01-30T08:18:25;9.90;99.70
68235;DHT22;55052;52.056;5.296;2024-01-30T08:20:53;10.00;99.80
68235;DHT22;55052;52.056;5.296;2024-01-30T08:23:19;10.00;99.80
68235;DHT22;55052;52.056;5.296;2024-01-30T08:25:46;10.10;99.90
68235;DHT22;55052;52.056;5.296;2024-01-30T08:28:13;10.20;99.90
68235;DHT22;55052;52.056;5.296;2024-01-30T08:30:42;10.30;99.90
68235;DHT22;55052;52.056;5.296;2024-01-30T08:33:09;10.30;99.90
68235;DHT22;55052;52.056;5.296;2024-01-30T08:35:36;10.40;99.90
68235;DHT22;55052;52.056;5.296;2024-01-30T08:38:03;10.50;99.90
68235;DHT22;55052;52.056;5.296;2024-01-30T08:40:30;10.60;99.90
68235;DHT22;55052;52.056;5.296;2024-01-30T08:42:57;10.70;99.90
68235;DHT22;55052;52.056;5.296;2024-01-30T08:45:24;10.70;99.90
68235;DHT22;55052;52.056;5.296;2024-01-30T08:47:51;10.90;99.90
68235;DHT22;55052;52.056;5.296;2024-01-30T08:50:18;10.90;99.90
68235;DHT22;55052;52.056;5.296;2024-01-30T08:52:45;11.00;99.90
68235;DHT22;55052;52.056;5.296;2024-01-30T08:55:14;11.00;99.90
68235;DHT22;55052;52.056;5.296;2024-01-30T08:57:41;11.10;99.90
68235;DHT22;55052;52.056;5.296;2024-01-30T09:00:08;11.20;99.90
68235;DHT22;55052;52.056;5.296;2024-01-30T09:02:36;11.20;99.90
68235;DHT22;55052;52.056;5.296;2024-01-30T09:05:04;11.30;99.90
68235;DHT22;55052;52.056;5.296;2024-01-30T09:07:31;11.30;99.90
68235;DHT22;55052;52.056;5.296;2024-01-30T09:09:58;11.40;99.90
68235;DHT22;55052;52.056;5.296;2024-01-30T09:12:24;11.40;99.90
68235;DHT22;55052;52.056;5.296;2024-01-30T09:14:51;11.50;99.90
68235;DHT22;55052;52.056;5.296;2024-01-30T09:17:18;11.50;99.90
68235;DHT22;55052;52.056;5.296;2024-01-30T09:19:46;11.60;99.90
68235;DHT22;55052;52.056;5.296;2024-01-30T09:22:13;11.60;99.90
68235;DHT22;55052;52.056;5.296;2024-01-30T09:24:40;11.60;99.90
68235;DHT22;55052;52.056;5.296;2024-01-30T09:27:07;11.60;99.90
68235;DHT22;55052;52.056;5.296;2024-01-30T09:29:34;11.70;99.90
68235;DHT22;55052;52.056;5.296;2024-01-30T09:32:04;11.70;99.90
68235;DHT22;55052;52.056;5.296;2024-01-30T09:34:32;11.70;99.90
68235;DHT22;55052;52.056;5.296;2024-01-30T09:36:59;11.70;99.90
68235;DHT22;55052;52.056;5.296;2024-01-30T09:39:27;11.70;99.90
68235;DHT22;55052;52.056;5.296;2024-01-30T09:42:17;11.70;99.90
68235;DHT22;55052;52.056;5.296;2024-01-30T09:44:47;11.70;99.90
68235;DHT22;55052;52.056;5.296;2024-01-30T09:47:17;11.80;99.90
68235;DHT22;55052;52.056;5.296;2024-01-30T09:49:44;11.80;99.80
68235;DHT22;55052;52.056;5.296;2024-01-30T09:52:12;11.80;99.80
68235;DHT22;55052;52.056;5.296;2024-01-30T09:54:40;11.80;99.80
68235;DHT22;55052;52.056;5.296;2024-01-30T09:57:08;11.80;99.80
68235;DHT22;55052;52.056;5.296;2024-01-30T09:59:36;11.80;99.70
68235;DHT22;55052;52.056;5.296;2024-01-30T10:02:02;11.90;99.70
68235;DHT22;55052;52.056;5.296;2024-01-30T10:04:31;11.90;99.70
68235;DHT22;55052;52.056;5.296;2024-01-30T10:07:02;11.90;99.60
68235;DHT22;55052;52.056;5.296;2024-01-30T10:09:32;11.90;99.50
68235;DHT22;55052;52.056;5.296;2024-01-30T10:12:01;12.00;99.50
68235;DHT22;55052;52.056;5.296;2024-01-30T10:14:28;12.00;99.40
68235;DHT22;55052;52.056;5.296;2024-01-30T10:16:55;12.00;99.40
68235;DHT22;55052;52.056;5.296;2024-01-30T10:19:22;12.00;99.40
68235;DHT22;55052;52.056;5.296;2024-01-30T10:21:49;12.00;99.40
68235;DHT22;55052;52.056;5.296;2024-01-30T10:24:16;12.00;99.30
68235;DHT22;55052;52.056;5.296;2024-01-30T10:26:44;12.10;99.40
68235;DHT22;55052;52.056;5.296;2024-01-30T10:29:11;12.10;99.40
68235;DHT22;55052;52.056;5.296;2024-01-30T10:31:37;12.10;99.40
68235;DHT22;55052;52.056;5.296;2024-01-30T10:34:04;12.10;99.40
68235;DHT22;55052;52.056;5.296;2024-01-30T10:36:46;12.20;99.30
68235;DHT22;55052;52.056;5.296;2024-01-30T10:39:17;12.20;99.30
68235;DHT22;55052;52.056;5.296;2024-01-30T10:41:44;12.30;99.20
68235;DHT22;55052;52.056;5.296;2024-01-30T10:44:18;12.30;99.20
68235;DHT22;55052;52.056;5.296;2024-01-30T10:46:50;12.40;99.10
68235;DHT22;55052;52.056;5.296;2024-01-30T10:49:18;12.40;99.00
68235;DHT22;55052;52.056;5.296;2024-01-30T10:51:45;12.40;99.00
68235;DHT22;55052;52.056;5.296;2024-01-30T10:54:14;12.40;98.90
68235;DHT22;55052;52.056;5.296;2024-01-30T10:56:42;12.40;98.80
68235;DHT22;55052;52.056;5.296;2024-01-30T10:59:10;12.50;98.80
68235;DHT22;55052;52.056;5.296;2024-01-30T11:01:40;12.40;98.70
68235;DHT22;55052;52.056;5.296;2024-01-30T11:04:07;12.40;98.60
68235;DHT22;55052;52.056;5.296;2024-01-30T11:06:41;12.40;98.60
68235;DHT22;55052;52.056;5.296;2024-01-30T11:09:11;12.50;98.50
68235;DHT22;55052;52.056;5.296;2024-01-30T11:12:12;12.50;98.50
68235;DHT22;55052;52.056;5.296;2024-01-30T11:14:38;12.50;98.30
68235;DHT22;55052;52.056;5.296;2024-01-30T11:17:10;12.50;98.30
68235;DHT22;55052;52.056;5.296;2024-01-30T11:19:41;12.50;98.30
68235;DHT22;55052;52.056;5.296;2024-01-30T11:22:10;12.50;98.20
68235;DHT22;55052;52.056;5.296;2024-01-30T11:24:41;12.50;98.10
68235;DHT22;55052;52.056;5.296;2024-01-30T11:27:09;12.50;97.70
68235;DHT22;55052;52.056;5.296;2024-01-30T11:29:40;12.40;97.70
68235;DHT22;55052;52.056;5.296;2024-01-30T11:32:07;12.40;97.60
68235;DHT22;55052;52.056;5.296;2024-01-30T11:34:34;12.40;97.40
68235;DHT22;55052;52.056;5.296;2024-01-30T11:37:09;12.40;97.10
68235;DHT22;55052;52.056;5.296;2024-01-30T11:39:39;12.30;97.00
68235;DHT22;55052;52.056;5.296;2024-01-30T11:42:08;12.30;96.60
68235;DHT22;55052;52.056;5.296;2024-01-30T11:44:35;12.30;96.90
68235;DHT22;55052;52.056;5.296;2024-01-30T11:47:02;12.30;96.40
68235;DHT22;55052;52.056;5.296;2024-01-30T11:49:30;12.20;96.00
68235;DHT22;55052;52.056;5.296;2024-01-30T11:51:57;12.20;96.00
68235;DHT22;55052;52.056;5.296;2024-01-30T11:54:24;12.20;95.80
68235;DHT22;55052;52.056;5.296;2024-01-30T11:56:51;12.10;95.60
68235;DHT22;55052;52.056;5.296;2024-01-30T11:59:18;12.10;95.30
68235;DHT22;55052;52.056;5.296;2024-01-30T12:01:45;12.00;95.40
68235;DHT22;55052;52.056;5.296;2024-01-30T12:04:12;12.00;95.40
68235;DHT22;55052;52.056;5.296;2024-01-30T12:06:39;12.00;95.20
68235;DHT22;55052;52.056;5.296;2024-01-30T12:09:06;11.90;95.20
68235;DHT22;55052;52.056;5.296;2024-01-30T12:11:48;11.90;95.20
68235;DHT22;55052;52.056;5.296;2024-01-30T12:14:16;11.90;95.10
68235;DHT22;55052;52.056;5.296;2024-01-30T12:16:43;11.90;94.80
68235;DHT22;55052;52.056;5.296;2024-01-30T12:19:10;11.80;94.80
68235;DHT22;55052;52.056;5.296;2024-01-30T12:21:38;11.70;94.50
68235;DHT22;55052;52.056;5.296;2024-01-30T12:24:05;11.70;94.20
68235;DHT22;55052;52.056;5.296;2024-01-30T12:26:34;11.60;94.10
68235;DHT22;55052;52.056;5.296;2024-01-30T12:29:04;11.50;94.30
68235;DHT22;55052;52.056;5.296;2024-01-30T12:31:32;11.50;94.10
68235;DHT22;55052;52.056;5.296;2024-01-30T12:34:00;11.40;94.10
68235;DHT22;55052;52.056;5.296;2024-01-30T12:36:29;11.30;94.00
68235;DHT22;55052;52.056;5.296;2024-01-30T12:38:57;11.30;94.20
68235;DHT22;55052;52.056;5.296;2024-01-30T12:41:25;11.20;94.10
68235;DHT22;55052;52.056;5.296;2024-01-30T12:43:57;11.10;93.90
68235;DHT22;55052;52.056;5.296;2024-01-30T12:46:30;11.10;94.00
68235;DHT22;55052;52.056;5.296;2024-01-30T12:48:57;11.00;94.00
68235;DHT22;55052;52.056;5.296;2024-01-30T12:51:24;11.00;94.00
68235;DHT22;55052;52.056;5.296;2024-01-30T12:53:51;10.90;94.10
68235;DHT22;55052;52.056;5.296;2024-01-30T12:56:18;10.90;94.20
68235;DHT22;55052;52.056;5.296;2024-01-30T12:58:45;10.90;94.10
68235;DHT22;55052;52.056;5.296;2024-01-30T13:01:16;10.80;94.10
68235;DHT22;55052;52.056;5.296;2024-01-30T13:03:43;10.80;94.10
68235;DHT22;55052;52.056;5.296;2024-01-30T13:06:10;10.80;94.10
68235;DHT22;55052;52.056;5.296;2024-01-30T13:08:37;10.80;94.10
68235;DHT22;55052;52.056;5.296;2024-01-30T13:11:04;10.80;94.10
68235;DHT22;55052;52.056;5.296;2024-01-30T13:13:31;10.80;94.10
68235;DHT22;55052;52.056;5.296;2024-01-30T13:15:58;10.80;94.10
68235;DHT22;55052;52.056;5.296;2024-01-30T13:18:24;10.80;94.20
68235;DHT22;55052;52.056;5.296;2024-01-30T13:20:51;10.80;94.20
68235;DHT22;55052;52.056;5.296;2024-01-30T13:23:19;10.80;94.30
68235;DHT22;55052;52.056;5.296;2024-01-30T13:25:46;10.80;94.40
68235;DHT22;55052;52.056;5.296;2024-01-30T13:28:12;10.80;94.40
68235;DHT22;55052;52.056;5.296;2024-01-30T13:30:39;10.80;94.40
68235;DHT22;55052;52.056;5.296;2024-01-30T13:33:06;10.80;94.30
68235;DHT22;55052;52.056;5.296;2024-01-30T13:35:33;10.80;94.40
68235;DHT22;55052;52.056;5.296;2024-01-30T13:38:00;10.70;94.40
68235;DHT22;55052;52.056;5.296;2024-01-30T13:40:26;10.70;94.40
68235;DHT22;55052;52.056;5.296;2024-01-30T13:42:53;10.80;94.50
68235;DHT22;55052;52.056;5.296;2024-01-30T13:45:20;10.70;94.50
68235;DHT22;55052;52.056;5.296;2024-01-30T13:47:49;10.70;94.60
68235;DHT22;55052;52.056;5.296;2024-01-30T13:50:16;10.70;94.60
68235;DHT22;55052;52.056;5.296;2024-01-30T13:52:43;10.60;94.60
68235;DHT22;55052;52.056;5.296;2024-01-30T13:55:11;10.60;94.80
68235;DHT22;55052;52.056;5.296;2024-01-30T13:57:39;10.50;94.90
68235;DHT22;55052;52.056;5.296;2024-01-30T14:00:06;10.50;94.90
68235;DHT22;55052;52.056;5.296;2024-01-30T14:02:34;10.50;94.90
68235;DHT22;55052;52.056;5.296;2024-01-30T14:05:00;10.50;95.00
68235;DHT22;55052;52.056;5.296;2024-01-30T14:07:27;10.50;95.00
68235;DHT22;55052;52.056;5.296;2024-01-30T14:09:54;10.50;95.10
68235;DHT22;55052;52.056;5.296;2024-01-30T14:12:22;10.50;95.10
68235;DHT22;55052;52.056;5.296;2024-01-30T14:14:49;10.50;95.50
68235;DHT22;55052;52.056;5.296;2024-01-30T14:17:15;10.50;95.20
68235;DHT22;55052;52.056;5.296;2024-01-30T14:19:42;10.50;95.20
68235;DHT22;55052;52.056;5.296;2024-01-30T14:22:09;10.50;95.20
68235;DHT22;55052;52.056;5.296;2024-01-30T14:24:36;10.40;95.20
68235;DHT22;55052;52.056;5.296;2024-01-30T14:27:04;10.40;95.20
68235;DHT22;55052;52.056;5.296;2024-01-30T14:29:31;10.50;95.30
68235;DHT22;55052;52.056;5.296;2024-01-30T14:31:57;10.50;95.30
68235;DHT22;55052;52.056;5.296;2024-01-30T14:34:25;10.40;95.30
68235;DHT22;55052;52.056;5.296;2024-01-30T14:36:52;10.40;95.30
68235;DHT22;55052;52.056;5.296;2024-01-30T14:39:19;10.40;95.40
68235;DHT22;55052;52.056;5.296;2024-01-30T14:41:45;10.30;95.50
68235;DHT22;55052;52.056;5.296;2024-01-30T14:44:12;10.30;95.50
68235;DHT22;55052;52.056;5.296;2024-01-30T14:46:40;10.30;95.70
68235;DHT22;55052;52.056;5.296;2024-01-30T14:49:07;10.20;95.80
68235;DHT22;55052;52.056;5.296;2024-01-30T14:51:36;10.20;96.00
68235;DHT22;55052;52.056;5.296;2024-01-30T14:54:03;10.10;96.00
68235;DHT22;55052;52.056;5.296;2024-01-30T14:56:30;10.10;96.10
68235;DHT22;55052;52.056;5.296;2024-01-30T14:58:57;10.10;96.40
68235;DHT22;55052;52.056;5.296;2024-01-30T15:01:25;10.00;96.60
68235;DHT22;55052;52.056;5.296;2024-01-30T15:03:52;10.00;96.70
68235;DHT22;55052;52.056;5.296;2024-01-30T15:06:19;9.90;96.80
68235;DHT22;55052;52.056;5.296;2024-01-30T15:08:47;9.90;96.90
68235;DHT22;55052;52.056;5.296;2024-01-30T15:11:14;9.90;97.00
68235;DHT22;55052;52.056;5.296;2024-01-30T15:13:41;9.80;97.20
68235;DHT22;55052;52.056;5.296;2024-01-30T15:16:08;9.80;97.40
68235;DHT22;55052;52.056;5.296;2024-01-30T15:18:35;9.80;97.40
68235;DHT22;55052;52.056;5.296;2024-01-30T15:21:02;9.80;97.60
68235;DHT22;55052;52.056;5.296;2024-01-30T15:23:29;9.80;97.70
68235;DHT22;55052;52.056;5.296;2024-01-30T15:25:56;9.80;97.80
68235;DHT22;55052;52.056;5.296;2024-01-30T15:28:37;9.70;97.90
68235;DHT22;55052;52.056;5.296;2024-01-30T15:31:05;9.70;97.90
68235;DHT22;55052;52.056;5.296;2024-01-30T15:33:33;9.70;98.10
68235;DHT22;55052;52.056;5.296;2024-01-30T15:36:00;9.70;98.10
68235;DHT22;55052;52.056;5.296;2024-01-30T15:38:28;9.70;98.20
68235;DHT22;55052;52.056;5.296;2024-01-30T15:40:58;9.60;98.20